createdAt,value
2023-03-05T00:01:24.485Z,2.70
2023-03-05T00:03:55.839Z,2.97
2023-03-05T00:06:25.568Z,2.67
2023-03-05T00:08:55.141Z,3.00
2023-03-05T00:11:24.378Z,2.80
2023-03-05T00:13:53.710Z,3.13
2023-03-05T00:16:22.850Z,2.87
2023-03-05T00:18:51.433Z,2.80
2023-03-05T00:21:25.974Z,2.97
2023-03-05T00:23:54.778Z,3.33
2023-03-05T00:26:25.925Z,3.37
2023-03-05T00:28:55.422Z,3.23
2023-03-05T00:31:25.693Z,3.10
2023-03-05T00:33:54.335Z,3.03
2023-03-05T00:36:24.585Z,3.00
2023-03-05T00:38:53.056Z,2.83
2023-03-05T00:41:21.666Z,3.30
2023-03-05T00:43:50.256Z,3.00
2023-03-05T00:46:18.666Z,3.00
2023-03-05T00:48:47.276Z,2.90
2023-03-05T00:51:15.735Z,2.90
2023-03-05T00:53:45.509Z,3.00
2023-03-05T00:56:13.784Z,3.13
2023-03-05T00:58:42.192Z,2.83
2023-03-05T01:01:10.712Z,3.03
2023-03-05T01:03:39.036Z,3.07
2023-03-05T01:06:09.634Z,3.07
2023-03-05T01:08:38.342Z,3.00
2023-03-05T01:11:09.038Z,3.23
2023-03-05T01:13:37.928Z,3.33
2023-03-05T01:16:06.840Z,3.47
2023-03-05T01:18:35.680Z,3.00
2023-03-05T01:21:05.549Z,3.00
2023-03-05T01:23:34.595Z,2.83
2023-03-05T01:26:02.906Z,2.90
2023-03-05T01:28:32.726Z,2.70
2023-03-05T01:31:01.032Z,3.10
2023-03-05T01:33:29.284Z,2.53
2023-03-05T01:35:57.665Z,3.07
2023-03-05T01:38:26.008Z,2.80
2023-03-05T01:40:54.328Z,3.00
2023-03-05T01:43:28.056Z,3.10
2023-03-05T01:46:26.493Z,3.07
2023-03-05T01:48:59.703Z,3.30
2023-03-05T01:51:31.669Z,3.30
2023-03-05T01:54:01.539Z,3.33
2023-03-05T01:56:31.807Z,3.33
2023-03-05T01:59:03.706Z,3.00
2023-03-05T02:01:41.375Z,2.70
2023-03-05T02:04:11.306Z,3.10
2023-03-05T02:06:40.856Z,3.20
2023-03-05T02:09:09.156Z,3.30
2023-03-05T02:11:37.864Z,3.17
2023-03-05T02:14:09.907Z,2.90
2023-03-05T02:16:40.557Z,3.50
2023-03-05T02:19:11.742Z,2.97
2023-03-05T02:21:43.919Z,3.20
2023-03-05T02:24:14.462Z,2.97
2023-03-05T02:26:44.832Z,3.13
2023-03-05T02:29:18.595Z,3.70
2023-03-05T02:31:47.260Z,3.73
2023-03-05T02:34:15.828Z,3.40
2023-03-05T02:36:45.600Z,3.73
2023-03-05T02:39:14.196Z,3.60
2023-03-05T02:41:42.492Z,3.20
2023-03-05T02:44:11.046Z,3.67
2023-03-05T02:46:39.312Z,3.40
2023-03-05T02:49:07.580Z,3.43
2023-03-05T02:51:36.106Z,3.13
2023-03-05T02:54:05.995Z,3.40
2023-03-05T02:56:34.330Z,3.30
2023-03-05T02:59:02.833Z,2.97
2023-03-05T03:01:31.127Z,3.30
2023-03-05T03:03:59.409Z,3.27
2023-03-05T03:06:27.758Z,3.50
2023-03-05T03:08:56.208Z,3.30
2023-03-05T03:11:25.928Z,3.27
2023-03-05T03:13:54.292Z,3.23
2023-03-05T03:16:22.688Z,3.37
2023-03-05T03:18:50.955Z,3.17
2023-03-05T03:21:21.337Z,2.80
2023-03-05T03:23:49.600Z,3.80
2023-03-05T03:26:18.554Z,3.03
2023-03-05T03:28:48.308Z,3.33
2023-03-05T03:31:16.894Z,3.40
2023-03-05T03:33:46.491Z,3.00
2023-03-05T03:36:15.059Z,3.73
2023-03-05T03:38:43.499Z,3.37
2023-03-05T03:41:11.842Z,3.20
2023-03-05T03:43:40.189Z,3.40
2023-03-05T03:46:10.042Z,3.37
2023-03-05T03:48:38.369Z,3.40
2023-03-05T03:51:08.377Z,3.07
2023-03-05T03:53:36.680Z,2.93
2023-03-05T03:56:05.674Z,3.13
2023-03-05T03:58:34.374Z,3.10
2023-03-05T04:01:02.715Z,3.80
2023-03-05T04:03:32.400Z,3.30
2023-03-05T04:06:00.699Z,3.07
2023-03-05T04:08:29.007Z,3.20
2023-03-05T04:10:57.412Z,3.33
2023-03-05T04:13:25.719Z,3.70
2023-03-05T04:15:54.496Z,3.57
2023-03-05T04:18:23.210Z,3.60
2023-03-05T04:20:53.038Z,3.40
2023-03-05T04:23:21.359Z,3.13
2023-03-05T04:25:49.870Z,3.93
2023-03-05T04:28:18.920Z,3.67
2023-03-05T04:30:47.301Z,3.80
2023-03-05T04:33:15.917Z,3.40
2023-03-05T04:35:44.349Z,3.90
2023-03-05T04:38:14.796Z,3.97
2023-03-05T04:40:43.266Z,4.10
2023-03-05T04:43:11.601Z,3.40
2023-03-05T04:45:41.523Z,4.00
2023-03-05T04:48:10.924Z,4.30
2023-03-05T04:50:39.286Z,4.27
2023-03-05T04:53:07.871Z,4.50
2023-03-05T04:55:37.602Z,4.97
2023-03-05T04:58:05.863Z,4.73
2023-03-05T05:00:34.337Z,4.80
2023-03-05T05:03:03.071Z,5.17
2023-03-05T05:05:31.634Z,5.07
2023-03-05T05:08:00.212Z,5.03
2023-03-05T05:10:29.287Z,4.83
2023-03-05T05:12:59.124Z,4.77
2023-03-05T05:15:27.546Z,5.20
2023-03-05T05:17:55.894Z,4.50
2023-03-05T05:20:24.237Z,4.93
2023-03-05T05:22:52.490Z,4.40
2023-03-05T05:25:21.093Z,4.70
2023-03-05T05:27:49.497Z,5.47
2023-03-05T05:30:19.789Z,5.33
2023-03-05T05:32:48.073Z,5.87
2023-03-05T05:35:16.917Z,93.10
2023-03-05T05:37:45.283Z,313.80
2023-03-05T05:40:14.338Z,581.43
2023-03-05T05:42:42.698Z,655.47
2023-03-05T05:45:12.150Z,522.43
2023-03-05T05:47:41.902Z,263.00
2023-03-05T05:50:12.162Z,127.47
2023-03-05T05:52:40.573Z,115.63
2023-03-05T05:55:09.835Z,181.17
2023-03-05T05:57:38.177Z,251.77
2023-03-05T06:00:09.090Z,323.97
2023-03-05T06:02:41.071Z,214.33
2023-03-05T06:05:12.614Z,108.10
2023-03-05T06:07:40.909Z,70.87
2023-03-05T06:10:10.779Z,70.37
2023-03-05T06:12:39.030Z,107.57
2023-03-05T06:15:08.637Z,175.80
2023-03-05T06:17:37.108Z,175.73
2023-03-05T06:20:08.602Z,112.90
2023-03-05T06:22:37.892Z,87.07
2023-03-05T06:25:07.481Z,112.70
2023-03-05T06:27:37.166Z,167.90
2023-03-05T06:30:07.185Z,342.60
2023-03-05T06:32:35.781Z,374.50
2023-03-05T06:35:04.542Z,312.63
2023-03-05T06:37:35.490Z,246.93
2023-03-05T06:40:05.644Z,322.93
2023-03-05T06:42:35.138Z,317.57
2023-03-05T06:45:03.993Z,239.27
2023-03-05T06:47:32.640Z,190.30
2023-03-05T06:50:00.952Z,118.57
2023-03-05T06:52:29.239Z,85.70
2023-03-05T06:54:58.921Z,100.13
2023-03-05T06:57:27.301Z,174.20
2023-03-05T06:59:55.859Z,201.27
2023-03-05T07:02:24.248Z,151.20
2023-03-05T07:04:52.599Z,112.90
2023-03-05T07:07:20.876Z,74.63
2023-03-05T07:09:50.391Z,93.60
2023-03-05T07:12:20.094Z,211.93
2023-03-05T07:14:48.360Z,142.23
2023-03-05T07:17:16.728Z,102.00
2023-03-05T07:19:45.086Z,109.63
2023-03-05T07:22:13.579Z,106.67
2023-03-05T07:24:41.834Z,95.40
2023-03-05T07:27:10.164Z,81.03
2023-03-05T07:29:40.108Z,77.83
2023-03-05T07:32:08.752Z,72.43
2023-03-05T07:34:38.827Z,65.30
2023-03-05T07:37:07.414Z,63.17
2023-03-05T07:39:35.822Z,54.90
2023-03-05T07:42:04.254Z,42.57
2023-03-05T07:44:33.079Z,40.80
2023-03-05T07:47:02.821Z,69.17
2023-03-05T07:49:31.140Z,63.70
2023-03-05T07:51:59.377Z,54.37
2023-03-05T07:54:27.936Z,54.93
2023-03-05T07:56:56.342Z,52.30
2023-03-05T07:59:24.717Z,65.57
2023-03-05T08:01:53.036Z,55.27
2023-03-05T08:04:22.826Z,42.13
2023-03-05T08:06:51.225Z,31.53
2023-03-05T08:09:20.313Z,23.07
2023-03-05T08:11:48.547Z,19.83
2023-03-05T08:14:17.561Z,20.37
2023-03-05T08:16:48.316Z,18.47
2023-03-05T08:19:16.760Z,18.33
2023-03-05T08:21:47.466Z,17.87
2023-03-05T08:24:16.212Z,16.37
2023-03-05T08:26:44.504Z,16.80
2023-03-05T08:29:12.863Z,18.50
2023-03-05T08:31:41.369Z,19.93
2023-03-05T08:34:09.764Z,27.77
2023-03-05T08:36:38.093Z,29.80
2023-03-05T08:39:08.626Z,27.63
2023-03-05T08:41:37.671Z,26.13
2023-03-05T08:44:06.369Z,28.17
2023-03-05T08:46:34.877Z,25.43
2023-03-05T08:49:03.258Z,24.53
2023-03-05T08:51:31.612Z,20.83
2023-03-05T08:54:00.620Z,20.20
2023-03-05T08:56:31.542Z,19.83
2023-03-05T08:59:00.028Z,18.63
2023-03-05T09:01:28.474Z,18.00
2023-03-05T09:03:56.849Z,16.20
2023-03-05T09:06:25.301Z,14.63
2023-03-05T09:08:53.835Z,12.60
2023-03-05T09:11:23.297Z,12.97
2023-03-05T09:13:53.068Z,12.00
2023-03-05T09:16:22.830Z,12.60
2023-03-05T09:18:51.273Z,12.70
2023-03-05T09:21:19.874Z,12.73
2023-03-05T09:23:48.374Z,12.13
2023-03-05T09:26:19.434Z,11.57
2023-03-05T09:28:48.319Z,12.33
2023-03-05T09:31:18.199Z,10.97
2023-03-05T09:33:46.871Z,11.07
2023-03-05T09:36:21.370Z,11.20
2023-03-05T09:38:49.775Z,11.10
2023-03-05T09:41:26.558Z,10.80
2023-03-05T09:44:03.229Z,11.07
2023-03-05T09:46:45.530Z,12.67
2023-03-05T09:49:21.067Z,14.70
2023-03-05T09:51:55.854Z,14.73
2023-03-05T09:54:31.242Z,14.43
2023-03-05T09:57:04.924Z,14.80
2023-03-05T09:59:38.111Z,12.90
2023-03-05T10:02:17.783Z,13.37
2023-03-05T10:04:50.190Z,12.27
2023-03-05T10:07:22.386Z,12.83
2023-03-05T10:09:56.218Z,11.43
2023-03-05T10:12:31.396Z,11.40
2023-03-05T10:15:03.174Z,10.90
2023-03-05T10:17:51.968Z,9.33
2023-03-05T10:20:59.090Z,9.63
2023-03-05T10:23:31.995Z,8.75
2023-03-05T10:26:18.585Z,8.80
2023-03-05T10:28:56.102Z,8.40
2023-03-05T10:31:42.665Z,7.93
2023-03-05T10:34:27.969Z,8.00
2023-03-05T10:37:18.026Z,7.63
2023-03-05T10:40:09.896Z,6.93
2023-03-05T10:42:48.346Z,8.23
2023-03-05T10:45:20.181Z,9.13
2023-03-05T10:47:53.551Z,8.52
2023-03-05T10:50:27.006Z,7.68
2023-03-05T10:53:14.046Z,7.47
2023-03-05T10:55:42.893Z,7.68
2023-03-05T10:58:14.073Z,9.23
2023-03-05T11:00:58.646Z,7.75
2023-03-05T11:03:27.429Z,6.63
2023-03-05T11:06:03.555Z,6.97
2023-03-05T11:08:33.583Z,7.25
2023-03-05T11:11:18.417Z,7.30
2023-03-05T11:13:55.038Z,8.20
2023-03-05T11:16:25.719Z,8.00
2023-03-05T11:19:26.942Z,8.30
2023-03-05T11:22:14.402Z,10.23
2023-03-05T11:24:44.095Z,10.75
2023-03-05T11:27:35.697Z,9.90
2023-03-05T11:30:05.457Z,8.98
2023-03-05T11:32:33.868Z,8.35
2023-03-05T11:35:02.977Z,8.82
2023-03-05T11:37:33.521Z,8.52
2023-03-05T11:40:21.399Z,8.45
2023-03-05T11:42:56.704Z,7.53
2023-03-05T11:45:27.500Z,10.30
2023-03-05T11:48:00.102Z,9.60
2023-03-05T11:50:30.695Z,8.98
2023-03-05T11:53:04.655Z,8.80
2023-03-05T11:55:38.973Z,9.00
2023-03-05T11:58:29.362Z,8.90
2023-03-05T12:00:58.040Z,11.25
2023-03-05T12:03:32.014Z,9.57
2023-03-05T12:06:08.356Z,8.68
2023-03-05T12:08:42.832Z,8.48
2023-03-05T12:11:18.222Z,8.23
2023-03-05T12:13:50.112Z,9.20
2023-03-05T12:16:30.216Z,11.65
2023-03-05T12:19:06.812Z,8.63
2023-03-05T12:21:37.856Z,7.55
2023-03-05T12:24:38.478Z,7.70
2023-03-05T12:27:16.192Z,10.23
2023-03-05T12:29:47.322Z,11.35
2023-03-05T12:33:02.353Z,8.40
2023-03-05T12:35:39.641Z,7.35
2023-03-05T12:38:31.262Z,8.95
2023-03-05T12:41:35.838Z,10.23
2023-03-05T12:44:24.049Z,8.38
2023-03-05T12:47:20.176Z,8.85
2023-03-05T12:49:49.874Z,8.05
2023-03-05T12:52:30.899Z,8.57
2023-03-05T12:55:08.807Z,9.63
2023-03-05T12:57:38.914Z,7.60
2023-03-05T13:00:13.244Z,7.95
2023-03-05T13:02:44.454Z,7.35
2023-03-05T13:05:22.723Z,7.93
2023-03-05T13:07:51.492Z,7.10
2023-03-05T13:10:25.637Z,6.57
2023-03-05T13:12:58.613Z,7.18
2023-03-05T13:15:27.921Z,6.20
2023-03-05T13:17:58.423Z,7.43
2023-03-05T13:20:37.799Z,6.63
2023-03-05T13:23:23.619Z,6.90
2023-03-05T13:26:00.588Z,6.93
2023-03-05T13:28:30.821Z,6.80
2023-03-05T13:31:01.017Z,7.00
2023-03-05T13:33:31.344Z,7.13
2023-03-05T13:36:00.444Z,7.25
2023-03-05T13:38:33.931Z,7.70
2023-03-05T13:41:07.223Z,6.97
2023-03-05T13:43:44.709Z,7.28
2023-03-05T13:46:13.266Z,7.93
2023-03-05T13:48:41.721Z,8.27
2023-03-05T13:51:12.064Z,7.68
2023-03-05T13:53:40.563Z,7.05
2023-03-05T13:56:14.692Z,7.00
2023-03-05T13:58:52.380Z,7.00
2023-03-05T14:01:30.080Z,6.95
2023-03-05T14:04:00.834Z,7.22
2023-03-05T14:06:31.096Z,7.47
2023-03-05T14:09:07.517Z,6.45
2023-03-05T14:11:36.980Z,7.03
2023-03-05T14:14:17.896Z,7.30
2023-03-05T14:16:46.269Z,7.78
2023-03-05T14:19:36.766Z,6.38
2023-03-05T14:22:06.608Z,7.00
2023-03-05T14:24:35.103Z,6.97
2023-03-05T14:27:08.677Z,6.80
2023-03-05T14:29:39.252Z,6.80
2023-03-05T14:32:09.721Z,7.15
2023-03-05T14:34:40.782Z,7.60
2023-03-05T14:37:19.556Z,7.53
2023-03-05T14:39:54.311Z,7.72
2023-03-05T14:42:30.183Z,7.47
2023-03-05T14:45:01.899Z,8.02
2023-03-05T14:47:31.043Z,7.93
2023-03-05T14:49:59.743Z,7.35
2023-03-05T14:52:28.411Z,7.10
2023-03-05T14:54:57.077Z,7.50
2023-03-05T14:57:28.882Z,6.72
2023-03-05T14:59:57.559Z,8.10
2023-03-05T15:02:28.434Z,7.95
2023-03-05T15:04:56.840Z,7.80
2023-03-05T15:07:30.398Z,7.50
2023-03-05T15:10:00.186Z,7.65
2023-03-05T15:12:28.958Z,8.20
2023-03-05T15:14:57.962Z,8.65
2023-03-05T15:17:34.762Z,7.85
2023-03-05T15:20:07.131Z,7.93
2023-03-05T15:22:35.863Z,9.80
2023-03-05T15:25:05.425Z,9.88
2023-03-05T15:27:33.944Z,9.85
2023-03-05T15:30:02.734Z,18.77
2023-03-05T15:32:32.597Z,19.23
2023-03-05T15:35:01.842Z,14.63
2023-03-05T15:37:30.652Z,12.95
2023-03-05T15:39:59.158Z,14.02
2023-03-05T15:42:27.773Z,12.57
2023-03-05T15:44:56.189Z,12.25
2023-03-05T15:47:24.673Z,12.02
2023-03-05T15:49:54.521Z,11.63
2023-03-05T15:52:23.093Z,10.20
2023-03-05T15:54:51.548Z,13.15
2023-03-05T15:57:22.957Z,11.98
2023-03-05T15:59:51.718Z,10.60
2023-03-05T16:02:20.164Z,11.93
2023-03-05T16:04:48.554Z,11.95
2023-03-05T16:07:18.733Z,13.98
2023-03-05T16:09:50.719Z,10.95
2023-03-05T16:12:22.837Z,11.80
2023-03-05T16:14:52.245Z,11.85
2023-03-05T16:17:21.981Z,11.30
2023-03-05T16:19:54.202Z,13.20
2023-03-05T16:22:25.079Z,12.90
2023-03-05T16:24:53.363Z,16.92
2023-03-05T16:27:21.855Z,12.95
2023-03-05T16:29:51.208Z,15.07
2023-03-05T16:32:20.005Z,14.63
2023-03-05T16:34:49.442Z,14.95
2023-03-05T16:37:21.570Z,15.52
2023-03-05T16:39:52.352Z,17.88
2023-03-05T16:42:20.860Z,16.73
2023-03-05T16:44:49.966Z,15.20
2023-03-05T16:47:18.540Z,15.53
2023-03-05T16:49:46.945Z,15.80
2023-03-05T16:52:19.001Z,17.63
2023-03-05T16:54:48.313Z,17.05
2023-03-05T16:57:18.562Z,18.00
2023-03-05T16:59:46.971Z,16.30
2023-03-05T17:02:15.927Z,17.00
2023-03-05T17:04:44.721Z,16.20
2023-03-05T17:07:13.423Z,17.33
2023-03-05T17:09:42.155Z,17.23
2023-03-05T17:12:10.562Z,17.23
2023-03-05T17:14:40.294Z,17.37
2023-03-05T17:17:08.753Z,17.70
2023-03-05T17:19:37.187Z,18.07
2023-03-05T17:22:06.188Z,28.30
2023-03-05T17:24:34.531Z,21.03
2023-03-05T17:27:02.943Z,17.70
2023-03-05T17:29:31.625Z,18.47
2023-03-05T17:32:01.479Z,17.90
2023-03-05T17:34:37.063Z,17.40
2023-03-05T17:37:06.036Z,17.77
2023-03-05T17:39:34.671Z,16.57
2023-03-05T17:42:03.410Z,16.33
2023-03-05T17:44:32.365Z,15.90
2023-03-05T17:47:02.407Z,16.73
2023-03-05T17:49:30.770Z,17.43
2023-03-05T17:51:59.234Z,15.93
2023-03-05T17:54:27.578Z,17.97
2023-03-05T17:56:56.608Z,16.87
2023-03-05T17:59:25.512Z,17.77
2023-03-05T18:01:54.109Z,18.00
2023-03-05T18:04:23.846Z,21.17
2023-03-05T18:06:52.283Z,22.50
2023-03-05T18:09:20.898Z,22.93
2023-03-05T18:11:49.321Z,22.63
2023-03-05T18:14:18.798Z,23.47
2023-03-05T18:16:47.496Z,26.20
2023-03-05T18:19:16.149Z,29.77
2023-03-05T18:21:46.049Z,32.50
2023-03-05T18:24:15.593Z,31.53
2023-03-05T18:26:46.348Z,26.33
2023-03-05T18:29:16.123Z,25.03
2023-03-05T18:31:45.494Z,24.70
2023-03-05T18:34:14.352Z,25.90
2023-03-05T18:36:42.869Z,24.33
2023-03-05T18:39:13.558Z,23.10
2023-03-05T18:41:43.143Z,22.07
2023-03-05T18:44:11.499Z,21.60
2023-03-05T18:46:39.871Z,20.83
2023-03-05T18:49:09.419Z,22.07
2023-03-05T18:51:38.491Z,21.13
2023-03-05T18:54:07.012Z,21.33
2023-03-05T18:56:37.033Z,19.33
2023-03-05T18:59:05.383Z,20.67
2023-03-05T19:01:33.918Z,20.10
2023-03-05T19:04:02.454Z,19.37
2023-03-05T19:06:30.963Z,19.90
2023-03-05T19:09:52.419Z,22.30
2023-03-05T19:12:24.102Z,27.27
2023-03-05T19:14:52.413Z,26.33
2023-03-05T19:17:20.774Z,26.37
2023-03-05T19:19:53.075Z,28.13
2023-03-05T19:22:22.494Z,27.23
2023-03-05T19:24:51.113Z,26.67
2023-03-05T19:27:20.021Z,23.33
2023-03-05T19:29:50.088Z,22.83
2023-03-05T19:32:21.173Z,21.60
2023-03-05T19:34:50.197Z,19.07
2023-03-05T19:37:19.401Z,18.70
2023-03-05T19:39:48.169Z,20.17
2023-03-05T19:42:16.874Z,20.93
2023-03-05T19:44:45.396Z,22.00
2023-03-05T19:47:15.306Z,23.53
2023-03-05T19:49:44.064Z,20.47
2023-03-05T19:52:14.139Z,18.83
2023-03-05T19:54:42.993Z,22.00
2023-03-05T19:57:11.408Z,20.97
2023-03-05T19:59:40.204Z,19.17
2023-03-05T20:02:08.975Z,18.03
2023-03-05T20:04:38.746Z,21.43
2023-03-05T20:07:07.283Z,25.53
2023-03-05T20:09:35.744Z,25.13
2023-03-05T20:12:05.734Z,24.57
2023-03-05T20:14:34.365Z,23.00
2023-03-05T20:17:03.246Z,21.50
2023-03-05T20:19:31.993Z,19.73
2023-03-05T20:22:01.722Z,19.20
2023-03-05T20:24:30.327Z,19.80
2023-03-05T20:27:00.140Z,20.47
2023-03-05T20:29:28.968Z,19.10
2023-03-05T20:31:57.844Z,19.53
2023-03-05T20:34:30.103Z,19.00
2023-03-05T20:37:00.028Z,19.03
2023-03-05T20:39:29.820Z,19.70
2023-03-05T20:41:58.140Z,17.13
2023-03-05T20:44:26.670Z,16.87
2023-03-05T20:47:42.462Z,17.10
2023-03-05T20:50:12.387Z,18.27
2023-03-05T20:52:41.259Z,19.57
2023-03-05T20:55:13.081Z,18.20
2023-03-05T20:57:42.839Z,20.10
2023-03-05T21:00:12.741Z,19.90
2023-03-05T21:02:41.296Z,22.23
2023-03-05T21:05:10.222Z,24.13
2023-03-05T21:07:38.478Z,24.33
2023-03-05T21:10:08.269Z,23.77
2023-03-05T21:12:38.156Z,21.80
2023-03-05T21:15:08.430Z,18.57
2023-03-05T21:17:36.897Z,16.57
2023-03-05T21:20:06.104Z,17.50
2023-03-05T21:22:35.292Z,17.13
2023-03-05T21:25:21.208Z,16.70
2023-03-05T21:27:55.284Z,15.93
2023-03-05T21:30:28.431Z,15.43
2023-03-05T21:32:58.125Z,16.47
2023-03-05T21:35:29.773Z,20.33
2023-03-05T21:37:58.268Z,20.07
2023-03-05T21:40:27.628Z,19.20
2023-03-05T21:42:57.606Z,18.37
2023-03-05T21:45:28.792Z,17.07
2023-03-05T21:47:59.113Z,18.00
2023-03-05T21:50:28.767Z,16.13
2023-03-05T21:52:57.229Z,14.93
2023-03-05T21:56:25.591Z,15.10
2023-03-05T21:58:55.517Z,14.67
2023-03-05T22:01:23.927Z,14.03
2023-03-05T22:03:52.366Z,13.20
2023-03-05T22:06:21.584Z,13.27
2023-03-05T22:08:49.962Z,12.77
2023-03-05T22:11:20.964Z,13.37
2023-03-05T22:13:49.501Z,12.20
2023-03-05T22:16:27.113Z,13.03
2023-03-05T22:18:56.101Z,12.80
2023-03-05T22:21:27.100Z,12.57
2023-03-05T22:23:57.164Z,12.40
2023-03-05T22:26:26.059Z,12.33
2023-03-05T22:28:54.520Z,11.40
2023-03-05T22:31:25.813Z,12.17
2023-03-05T22:33:54.926Z,11.47
2023-03-05T22:36:23.813Z,11.90
2023-03-05T22:38:52.987Z,11.63
2023-03-05T22:41:22.226Z,11.97
2023-03-05T22:43:52.451Z,12.60
2023-03-05T22:46:22.973Z,12.67
2023-03-05T22:48:53.784Z,12.13
2023-03-05T22:51:22.279Z,12.37
2023-03-05T22:53:50.657Z,12.67
2023-03-05T22:56:21.414Z,12.70
2023-03-05T22:58:50.237Z,12.90
2023-03-05T23:01:20.720Z,11.83
2023-03-05T23:04:37.818Z,12.37
2023-03-05T23:07:07.770Z,12.23
2023-03-05T23:09:36.053Z,12.67
2023-03-05T23:12:04.828Z,12.47
2023-03-05T23:14:33.137Z,13.50
2023-03-05T23:17:01.374Z,12.53
2023-03-05T23:19:29.748Z,12.07
2023-03-05T23:21:58.043Z,11.90
2023-03-05T23:24:27.849Z,10.90
2023-03-05T23:26:56.197Z,12.27
2023-03-05T23:30:19.853Z,13.33
2023-03-05T23:32:51.027Z,14.10
2023-03-05T23:35:22.357Z,12.03
2023-03-05T23:37:50.899Z,11.53
2023-03-05T23:40:23.514Z,10.90
2023-03-05T23:42:52.170Z,12.17
2023-03-05T23:45:22.277Z,11.00
2023-03-05T23:47:51.646Z,12.13
2023-03-05T23:50:21.330Z,12.00
2023-03-05T23:52:50.845Z,12.23
2023-03-05T23:55:23.148Z,12.17
2023-03-05T23:57:51.772Z,11.73
